createdAt,value
2022-07-26T00:01:39.240Z,11.50
2022-07-26T00:04:07.753Z,8.80
2022-07-26T00:06:35.425Z,7.57
2022-07-26T00:09:02.905Z,6.87
2022-07-26T00:11:33.616Z,6.50
2022-07-26T00:14:02.519Z,6.70
2022-07-26T00:16:30.534Z,6.83
2022-07-26T00:18:58.019Z,5.77
2022-07-26T00:21:25.720Z,5.80
2022-07-26T00:23:53.278Z,6.00
2022-07-26T00:26:20.666Z,6.80
2022-07-26T00:28:48.373Z,6.17
2022-07-26T00:31:17.187Z,6.80
2022-07-26T00:33:44.588Z,6.10
2022-07-26T00:36:12.263Z,6.20
2022-07-26T00:38:40.466Z,6.10
2022-07-26T00:41:09.162Z,6.33
2022-07-26T00:43:36.713Z,6.30
2022-07-26T00:46:04.521Z,6.13
2022-07-26T00:48:33.309Z,5.60
2022-07-26T00:51:00.770Z,5.53
2022-07-26T00:53:28.153Z,5.33
2022-07-26T00:55:55.690Z,5.43
2022-07-26T00:58:23.424Z,5.63
2022-07-26T01:00:50.882Z,5.10
2022-07-26T01:03:18.326Z,5.20
2022-07-26T01:05:47.054Z,5.03
2022-07-26T01:08:14.501Z,5.50
2022-07-26T01:10:43.719Z,4.93
2022-07-26T01:13:11.281Z,4.43
2022-07-26T01:15:38.779Z,4.90
2022-07-26T01:18:06.246Z,4.73
2022-07-26T01:20:33.967Z,5.50
2022-07-26T01:23:02.887Z,5.63
2022-07-26T01:25:30.839Z,5.60
2022-07-26T01:27:58.287Z,5.40
2022-07-26T01:30:25.728Z,5.83
2022-07-26T01:32:53.192Z,5.80
2022-07-26T01:35:20.587Z,5.30
2022-07-26T01:37:48.301Z,6.57
2022-07-26T01:40:17.037Z,5.43
2022-07-26T01:42:44.428Z,6.00
2022-07-26T01:45:12.566Z,5.40
2022-07-26T01:47:40.352Z,5.10
2022-07-26T01:50:08.705Z,5.40
2022-07-26T01:52:37.281Z,5.13
2022-07-26T01:55:04.981Z,5.40
2022-07-26T01:57:33.737Z,5.43
2022-07-26T02:00:01.170Z,4.97
2022-07-26T02:02:29.644Z,4.83
2022-07-26T02:04:59.806Z,4.63
2022-07-26T02:07:27.311Z,5.23
2022-07-26T02:09:54.732Z,5.17
2022-07-26T02:12:22.446Z,5.00
2022-07-26T02:14:52.106Z,4.87
2022-07-26T02:17:19.526Z,4.80
2022-07-26T02:19:47.053Z,5.40
2022-07-26T02:22:14.431Z,4.57
2022-07-26T02:24:41.920Z,4.53
2022-07-26T02:27:09.702Z,4.57
2022-07-26T02:29:37.096Z,4.07
2022-07-26T02:32:06.703Z,4.40
2022-07-26T02:34:34.534Z,4.60
2022-07-26T02:37:02.059Z,4.10
2022-07-26T02:39:29.466Z,4.33
2022-07-26T02:41:57.938Z,3.50
2022-07-26T02:44:25.628Z,4.13
2022-07-26T02:46:53.165Z,3.90
2022-07-26T02:49:22.424Z,3.87
2022-07-26T02:51:49.834Z,4.20
2022-07-26T02:54:17.677Z,3.27
2022-07-26T02:56:45.052Z,3.27
2022-07-26T02:59:12.423Z,3.63
2022-07-26T03:01:40.116Z,3.70
2022-07-26T03:04:08.937Z,3.73
2022-07-26T03:06:37.988Z,3.40
2022-07-26T03:09:05.411Z,3.87
2022-07-26T03:11:32.795Z,3.77
2022-07-26T03:14:00.190Z,4.00
2022-07-26T03:16:29.862Z,3.60
2022-07-26T03:18:57.570Z,3.40
2022-07-26T03:21:24.974Z,3.50
2022-07-26T03:23:53.688Z,3.40
2022-07-26T03:26:21.105Z,3.47
2022-07-26T03:28:48.491Z,3.40
2022-07-26T03:31:15.992Z,3.70
2022-07-26T03:33:43.445Z,3.73
2022-07-26T03:36:12.843Z,3.63
2022-07-26T03:38:43.185Z,3.50
2022-07-26T03:41:13.717Z,3.13
2022-07-26T03:43:41.300Z,3.50
2022-07-26T03:46:08.821Z,3.93
2022-07-26T03:48:36.346Z,4.03
2022-07-26T03:51:03.764Z,4.03
2022-07-26T03:53:31.208Z,4.10
2022-07-26T03:56:17.305Z,3.60
2022-07-26T03:58:46.047Z,4.33
2022-07-26T04:01:13.479Z,4.23
2022-07-26T04:03:45.711Z,3.97
2022-07-26T04:06:15.033Z,3.70
2022-07-26T04:08:43.069Z,4.57
2022-07-26T04:11:10.478Z,4.47
2022-07-26T04:13:37.936Z,3.83
2022-07-26T04:16:07.293Z,4.27
2022-07-26T04:18:34.708Z,4.57
2022-07-26T04:21:02.191Z,4.87
2022-07-26T04:23:29.574Z,4.03
2022-07-26T04:25:56.942Z,4.53
2022-07-26T04:28:26.725Z,4.03
2022-07-26T04:30:54.152Z,4.30
2022-07-26T04:33:22.881Z,4.57
2022-07-26T04:35:50.332Z,4.83
2022-07-26T04:38:18.686Z,4.47
2022-07-26T04:40:46.226Z,4.97
2022-07-26T04:43:15.503Z,4.43
2022-07-26T04:45:43.613Z,4.97
2022-07-26T04:48:11.026Z,4.90
2022-07-26T04:50:39.761Z,4.60
2022-07-26T04:53:07.194Z,4.87
2022-07-26T04:55:34.687Z,4.83
2022-07-26T04:58:02.089Z,4.53
2022-07-26T05:00:29.491Z,4.57
2022-07-26T05:02:58.319Z,4.53
2022-07-26T05:05:27.166Z,4.97
2022-07-26T05:07:56.694Z,4.83
2022-07-26T05:10:31.331Z,4.67
2022-07-26T05:12:58.759Z,4.70
2022-07-26T05:15:35.082Z,4.77
2022-07-26T05:18:06.864Z,4.97
2022-07-26T05:20:35.134Z,4.30
2022-07-26T05:23:03.983Z,4.57
2022-07-26T05:25:31.411Z,4.10
2022-07-26T05:27:58.815Z,3.87
2022-07-26T05:30:26.315Z,4.20
2022-07-26T05:32:53.786Z,4.30
2022-07-26T05:35:21.289Z,4.07
2022-07-26T05:37:48.701Z,3.33
2022-07-26T05:40:17.592Z,3.93
2022-07-26T05:42:45.286Z,4.00
2022-07-26T05:45:12.806Z,3.80
2022-07-26T05:47:40.402Z,3.73
2022-07-26T05:50:08.239Z,3.50
2022-07-26T05:52:35.611Z,3.60
2022-07-26T05:55:03.067Z,3.80
2022-07-26T05:57:31.799Z,3.43
2022-07-26T05:59:59.217Z,3.43
2022-07-26T06:02:26.667Z,3.27
2022-07-26T06:04:54.158Z,3.33
2022-07-26T06:07:21.595Z,3.30
2022-07-26T06:09:48.969Z,3.30
2022-07-26T06:12:16.372Z,2.80
2022-07-26T06:14:45.356Z,3.23
2022-07-26T06:17:12.784Z,2.97
2022-07-26T06:19:44.290Z,3.00
2022-07-26T06:22:14.594Z,3.00
2022-07-26T06:24:41.968Z,3.40
2022-07-26T06:27:09.395Z,2.87
2022-07-26T06:29:36.769Z,2.10
2022-07-26T06:32:05.683Z,2.60
2022-07-26T06:34:33.125Z,2.30
2022-07-26T06:37:00.655Z,2.50
2022-07-26T06:39:28.034Z,2.20
2022-07-26T06:41:55.634Z,2.23
2022-07-26T06:44:23.805Z,2.30
2022-07-26T06:46:51.234Z,2.43
2022-07-26T06:49:22.660Z,2.53
2022-07-26T06:51:50.759Z,2.00
2022-07-26T06:54:18.159Z,2.40
2022-07-26T06:56:45.660Z,2.10
2022-07-26T06:59:13.076Z,2.07
2022-07-26T07:01:58.168Z,2.40
2022-07-26T07:04:28.664Z,1.97
2022-07-26T07:06:57.384Z,2.47
2022-07-26T07:09:25.506Z,2.30
2022-07-26T07:11:57.395Z,2.40
2022-07-26T07:14:28.146Z,2.20
2022-07-26T07:16:56.513Z,1.90
2022-07-26T07:19:24.131Z,2.03
2022-07-26T07:21:52.846Z,1.97
2022-07-26T07:24:20.595Z,1.70
2022-07-26T07:26:48.019Z,1.77
2022-07-26T07:29:17.428Z,1.53
2022-07-26T07:31:48.998Z,1.70
2022-07-26T07:34:19.518Z,1.50
2022-07-26T07:36:47.392Z,1.57
2022-07-26T07:39:17.651Z,1.23
2022-07-26T07:41:45.415Z,1.13
2022-07-26T07:44:12.887Z,0.90
2022-07-26T07:46:40.555Z,1.10
2022-07-26T07:49:08.380Z,1.27
2022-07-26T07:51:36.465Z,1.37
2022-07-26T07:54:05.789Z,1.37
2022-07-26T07:56:34.720Z,1.10
2022-07-26T07:59:02.338Z,0.90
2022-07-26T08:01:39.500Z,1.20
2022-07-26T08:04:08.283Z,1.87
2022-07-26T08:06:35.894Z,1.23
2022-07-26T08:09:03.961Z,1.10
2022-07-26T08:11:35.315Z,0.90
2022-07-26T08:14:03.894Z,1.10
2022-07-26T08:16:31.419Z,1.20
2022-07-26T08:18:58.835Z,0.70
2022-07-26T08:21:27.496Z,1.13
2022-07-26T08:23:56.390Z,1.00
2022-07-26T08:26:23.765Z,1.07
2022-07-26T08:29:00.279Z,1.00
2022-07-26T08:31:28.027Z,1.20
2022-07-26T08:33:55.504Z,1.23
2022-07-26T08:36:22.901Z,1.10
2022-07-26T08:38:50.452Z,1.37
2022-07-26T08:41:18.355Z,1.07
2022-07-26T08:43:51.141Z,1.03
2022-07-26T08:46:25.832Z,1.70
2022-07-26T08:48:55.089Z,1.10
2022-07-26T08:51:23.886Z,0.93
2022-07-26T08:53:51.517Z,1.10
2022-07-26T08:56:18.940Z,1.00
2022-07-26T08:58:46.315Z,0.87
2022-07-26T09:01:14.198Z,1.10
2022-07-26T09:03:43.921Z,1.10
2022-07-26T09:06:12.335Z,0.70
2022-07-26T09:08:39.770Z,0.87
2022-07-26T09:11:22.123Z,0.90
2022-07-26T09:13:53.205Z,1.10
2022-07-26T09:16:20.894Z,0.87
2022-07-26T09:18:49.715Z,1.30
2022-07-26T09:21:27.202Z,1.10
2022-07-26T09:23:55.764Z,1.37
2022-07-26T09:26:26.155Z,1.10
2022-07-26T09:29:04.330Z,1.37
2022-07-26T09:31:32.001Z,1.20
2022-07-26T09:34:00.823Z,1.07
2022-07-26T09:36:28.698Z,1.07
2022-07-26T09:38:58.504Z,1.40
2022-07-26T09:41:27.075Z,1.43
2022-07-26T09:43:55.531Z,1.23
2022-07-26T09:46:23.332Z,1.30
2022-07-26T09:51:40.742Z,1.10
2022-07-26T09:54:09.045Z,1.03
2022-07-26T09:56:44.344Z,1.20
2022-07-26T09:59:13.109Z,1.10
2022-07-26T10:01:40.524Z,1.30
2022-07-26T10:04:08.482Z,1.40
2022-07-26T10:06:36.101Z,1.00
2022-07-26T10:09:05.592Z,0.90
2022-07-26T10:11:36.518Z,1.00
2022-07-26T10:14:18.818Z,1.20
2022-07-26T10:16:46.236Z,1.27
2022-07-26T10:19:37.789Z,1.20
2022-07-26T10:22:23.783Z,1.00
2022-07-26T10:24:57.752Z,1.03
2022-07-26T10:27:38.478Z,1.00
2022-07-26T10:30:31.547Z,0.93
2022-07-26T10:33:02.218Z,0.87
2022-07-26T10:35:32.928Z,1.00
2022-07-26T10:38:01.537Z,0.90
2022-07-26T10:40:31.015Z,1.00
2022-07-26T10:43:37.949Z,1.00
2022-07-26T10:46:10.731Z,1.30
2022-07-26T10:48:55.825Z,1.00
2022-07-26T10:51:25.491Z,1.10
2022-07-26T10:54:00.003Z,1.00
2022-07-26T10:56:33.069Z,0.80
2022-07-26T10:59:00.965Z,1.00
2022-07-26T11:01:33.368Z,0.80
2022-07-26T11:04:00.849Z,0.70
2022-07-26T11:06:28.821Z,0.90
2022-07-26T11:08:56.339Z,1.00
2022-07-26T11:11:30.238Z,0.73
2022-07-26T11:14:04.894Z,0.70
2022-07-26T11:16:37.294Z,0.83
2022-07-26T11:19:12.693Z,0.90
2022-07-26T11:21:41.222Z,0.90
2022-07-26T11:24:09.092Z,0.90
2022-07-26T11:26:42.925Z,0.70
2022-07-26T11:29:10.446Z,0.70
2022-07-26T11:31:49.745Z,1.00
2022-07-26T11:34:19.614Z,0.93
2022-07-26T11:36:47.632Z,0.97
2022-07-26T11:39:16.215Z,1.00
2022-07-26T11:41:44.939Z,0.70
2022-07-26T11:44:16.456Z,0.80
2022-07-26T11:46:47.553Z,0.80
2022-07-26T11:49:16.237Z,0.60
2022-07-26T11:51:50.985Z,0.80
2022-07-26T11:54:18.564Z,0.77
2022-07-26T11:56:54.156Z,0.90
2022-07-26T11:59:21.786Z,0.70
2022-07-26T12:01:49.778Z,0.60
2022-07-26T12:04:21.543Z,0.80
2022-07-26T12:06:49.432Z,0.70
2022-07-26T12:09:28.927Z,0.90
2022-07-26T12:11:57.714Z,0.77
2022-07-26T12:14:28.653Z,0.70
2022-07-26T12:16:56.062Z,0.97
2022-07-26T12:19:25.416Z,0.80
2022-07-26T12:21:53.602Z,0.83
2022-07-26T12:24:38.392Z,0.70
2022-07-26T12:27:08.766Z,0.70
2022-07-26T12:29:37.161Z,0.93
2022-07-26T12:32:12.089Z,0.70
2022-07-26T12:34:40.932Z,0.93
2022-07-26T12:37:12.609Z,0.70
2022-07-26T12:39:40.302Z,0.60
2022-07-26T12:42:33.463Z,0.70
2022-07-26T12:45:02.281Z,0.60
2022-07-26T12:47:29.708Z,0.60
2022-07-26T12:49:57.106Z,0.67
2022-07-26T12:52:24.944Z,0.60
2022-07-26T12:54:52.963Z,0.63
2022-07-26T12:57:20.896Z,0.70
2022-07-26T12:59:50.206Z,0.50
2022-07-26T13:02:18.504Z,0.37
2022-07-26T13:04:46.071Z,0.60
2022-07-26T13:07:13.575Z,0.77
2022-07-26T13:09:41.382Z,0.70
2022-07-26T13:12:09.856Z,0.80
2022-07-26T13:14:37.747Z,0.80
2022-07-26T13:17:07.403Z,0.53
2022-07-26T13:19:35.337Z,0.97
2022-07-26T13:22:03.325Z,0.70
2022-07-26T13:24:33.364Z,0.70
2022-07-26T13:27:01.039Z,0.70
2022-07-26T13:29:29.631Z,0.70
2022-07-26T13:31:58.136Z,0.80
2022-07-26T13:34:30.501Z,0.80
2022-07-26T13:37:01.967Z,0.97
2022-07-26T13:39:35.616Z,0.80
2022-07-26T13:42:03.037Z,0.90
2022-07-26T13:44:30.411Z,0.90
2022-07-26T13:46:57.822Z,1.10
2022-07-26T13:49:25.290Z,0.73
2022-07-26T13:51:59.886Z,0.97
2022-07-26T13:54:28.306Z,1.10
2022-07-26T13:56:56.177Z,0.90
2022-07-26T13:59:23.684Z,1.00
2022-07-26T14:01:51.237Z,0.73
2022-07-26T14:04:20.190Z,1.00
2022-07-26T14:06:47.639Z,1.00
2022-07-26T14:09:16.691Z,0.90
2022-07-26T14:11:44.650Z,0.90
2022-07-26T14:14:12.518Z,1.10
2022-07-26T14:16:40.573Z,0.80
2022-07-26T14:19:08.167Z,0.80
2022-07-26T14:21:43.524Z,0.80
2022-07-26T14:24:16.652Z,0.80
2022-07-26T14:26:48.264Z,0.80
2022-07-26T14:29:15.654Z,0.93
2022-07-26T14:31:44.674Z,1.10
2022-07-26T14:34:12.374Z,0.90
2022-07-26T14:36:40.040Z,1.00
2022-07-26T14:39:07.439Z,0.67
2022-07-26T14:41:36.233Z,0.80
2022-07-26T14:44:04.683Z,1.03
2022-07-26T14:46:32.136Z,0.70
2022-07-26T14:48:59.763Z,1.10
2022-07-26T14:51:27.219Z,1.07
2022-07-26T14:53:54.710Z,0.93
2022-07-26T14:56:22.362Z,1.00
2022-07-26T14:58:51.193Z,0.83
2022-07-26T15:01:18.633Z,1.00
2022-07-26T15:03:46.127Z,0.97
2022-07-26T15:06:13.506Z,0.93
2022-07-26T15:08:40.885Z,1.20
2022-07-26T15:11:08.316Z,1.17
2022-07-26T15:13:36.158Z,1.33
2022-07-26T15:16:05.115Z,1.20
2022-07-26T15:18:32.626Z,1.30
2022-07-26T15:21:00.056Z,0.93
2022-07-26T15:23:27.433Z,1.37
2022-07-26T15:25:54.962Z,1.43
2022-07-26T15:28:22.334Z,1.50
2022-07-26T15:30:49.771Z,1.20
2022-07-26T15:33:20.552Z,1.50
2022-07-26T15:35:48.000Z,1.40
2022-07-26T15:38:15.368Z,1.30
2022-07-26T15:40:42.860Z,1.57
2022-07-26T15:43:10.613Z,1.70
2022-07-26T15:45:40.925Z,1.60
2022-07-26T15:48:17.100Z,1.47
2022-07-26T15:50:49.846Z,1.30
2022-07-26T15:53:17.391Z,1.40
2022-07-26T15:55:44.932Z,1.60
2022-07-26T15:58:13.155Z,1.57
2022-07-26T16:00:40.708Z,1.47
2022-07-26T16:03:08.136Z,1.60
2022-07-26T16:05:35.583Z,1.40
2022-07-26T16:08:04.416Z,1.53
2022-07-26T16:10:31.818Z,1.30
2022-07-26T16:12:59.314Z,1.67
2022-07-26T16:15:26.803Z,1.90
2022-07-26T16:17:54.170Z,2.57
2022-07-26T16:20:21.646Z,1.90
2022-07-26T16:22:49.137Z,2.50
2022-07-26T16:25:17.853Z,1.97
2022-07-26T16:27:45.317Z,1.80
2022-07-26T16:30:13.599Z,2.20
2022-07-26T16:32:40.983Z,1.93
2022-07-26T16:35:09.073Z,2.00
2022-07-26T16:37:36.458Z,1.80
2022-07-26T16:40:04.424Z,2.13
2022-07-26T16:42:33.226Z,2.20
2022-07-26T16:45:00.678Z,2.37
2022-07-26T16:47:28.059Z,2.40
2022-07-26T16:49:55.451Z,2.00
2022-07-26T16:52:22.850Z,2.10
2022-07-26T16:54:50.263Z,2.17
2022-07-26T16:57:17.665Z,1.80
2022-07-26T16:59:46.576Z,2.50
2022-07-26T17:02:14.100Z,2.53
2022-07-26T17:04:41.666Z,2.40
2022-07-26T17:07:24.565Z,2.10
2022-07-26T17:09:53.247Z,2.23
2022-07-26T17:12:20.634Z,2.17
2022-07-26T17:14:49.381Z,2.00
2022-07-26T17:17:16.786Z,2.43
2022-07-26T17:19:44.179Z,2.10
2022-07-26T17:22:11.591Z,2.27
2022-07-26T17:24:39.011Z,2.63
2022-07-26T17:27:06.399Z,2.00
2022-07-26T17:29:33.867Z,2.00
2022-07-26T17:32:02.576Z,2.23
2022-07-26T17:34:29.996Z,2.33
2022-07-26T17:36:58.305Z,2.37
2022-07-26T17:39:25.987Z,2.20
2022-07-26T17:42:13.452Z,2.00
2022-07-26T17:44:43.346Z,2.10
2022-07-26T17:47:18.116Z,2.00
2022-07-26T17:49:57.103Z,2.23
2022-07-26T17:52:26.463Z,2.23
2022-07-26T17:54:57.055Z,2.43
2022-07-26T17:57:24.560Z,2.03
2022-07-26T17:59:51.963Z,2.30
2022-07-26T18:02:21.508Z,2.23
2022-07-26T18:04:49.109Z,2.20
2022-07-26T18:07:16.860Z,2.37
2022-07-26T18:09:44.234Z,2.30
2022-07-26T18:12:11.628Z,2.20
2022-07-26T18:14:39.201Z,2.17
2022-07-26T18:17:06.588Z,2.20
2022-07-26T18:19:35.293Z,2.00
2022-07-26T18:22:05.882Z,2.07
2022-07-26T18:24:33.609Z,2.20
2022-07-26T18:27:00.978Z,2.10
2022-07-26T18:29:28.358Z,2.00
2022-07-26T18:31:58.490Z,2.00
2022-07-26T18:34:25.987Z,2.00
2022-07-26T18:36:54.783Z,2.13
2022-07-26T18:39:22.174Z,2.27
2022-07-26T18:41:49.644Z,2.10
2022-07-26T18:44:17.029Z,2.07
2022-07-26T18:46:44.473Z,1.90
2022-07-26T18:49:19.793Z,2.10
2022-07-26T18:51:48.816Z,2.13
2022-07-26T18:54:17.783Z,2.00
2022-07-26T18:56:45.160Z,1.80
2022-07-26T18:59:12.879Z,2.37
2022-07-26T19:01:40.598Z,2.17
2022-07-26T19:04:08.364Z,2.43
2022-07-26T19:06:35.987Z,2.20
2022-07-26T19:09:03.502Z,2.87
2022-07-26T19:11:33.249Z,2.13
2022-07-26T19:14:05.198Z,2.53
2022-07-26T19:16:32.920Z,2.13
2022-07-26T19:19:00.330Z,2.63
2022-07-26T19:21:27.731Z,2.37
2022-07-26T19:23:55.110Z,2.20
2022-07-26T19:26:23.727Z,2.43
2022-07-26T19:28:52.519Z,2.70
2022-07-26T19:31:20.012Z,2.70
2022-07-26T19:33:47.463Z,3.37
2022-07-26T19:36:15.859Z,2.37
2022-07-26T19:38:52.655Z,2.33
2022-07-26T19:41:20.281Z,2.43
2022-07-26T19:43:47.905Z,2.40
2022-07-26T19:46:16.748Z,2.10
2022-07-26T19:48:44.255Z,2.30
2022-07-26T19:51:11.991Z,2.47
2022-07-26T19:53:39.392Z,2.00
2022-07-26T19:56:07.798Z,2.20
2022-07-26T19:58:35.207Z,2.20
2022-07-26T20:01:02.722Z,2.10
2022-07-26T20:03:31.495Z,2.60
2022-07-26T20:06:00.178Z,2.20
2022-07-26T20:08:27.931Z,2.10
2022-07-26T20:10:55.484Z,2.20
2022-07-26T20:13:23.862Z,2.23
2022-07-26T20:15:51.524Z,2.63
2022-07-26T20:18:21.935Z,2.07
2022-07-26T20:20:53.310Z,2.20
2022-07-26T20:23:20.703Z,2.00
2022-07-26T20:25:48.118Z,1.87
2022-07-26T20:28:15.534Z,2.43
2022-07-26T20:30:43.063Z,2.33
2022-07-26T20:33:10.603Z,2.37
2022-07-26T20:35:38.224Z,2.20
2022-07-26T20:38:06.951Z,2.50
2022-07-26T20:40:34.359Z,2.33
2022-07-26T20:43:01.753Z,2.33
2022-07-26T20:45:29.902Z,2.40
2022-07-26T20:47:57.326Z,2.70
2022-07-26T20:50:24.762Z,2.40
2022-07-26T20:52:52.193Z,2.40
2022-07-26T20:55:21.575Z,2.37
2022-07-26T20:57:49.890Z,2.63
2022-07-26T21:00:18.178Z,2.37
2022-07-26T21:02:45.680Z,2.30
2022-07-26T21:05:13.624Z,2.70
2022-07-26T21:07:55.073Z,2.50
2022-07-26T21:10:27.818Z,2.27
2022-07-26T21:12:57.206Z,2.40
2022-07-26T21:15:24.691Z,2.10
2022-07-26T21:17:52.452Z,2.20
2022-07-26T21:20:19.986Z,2.20
2022-07-26T21:22:47.633Z,2.20
2022-07-26T21:25:15.445Z,2.00
2022-07-26T21:27:44.151Z,2.50
2022-07-26T21:30:11.978Z,2.20
2022-07-26T21:32:39.459Z,2.50
2022-07-26T21:35:07.261Z,2.00
2022-07-26T21:37:34.689Z,2.10
2022-07-26T21:40:02.234Z,2.00
2022-07-26T21:42:29.663Z,2.17
2022-07-26T21:44:58.530Z,1.83
2022-07-26T21:47:25.909Z,2.13
2022-07-26T21:49:53.286Z,1.90
2022-07-26T21:52:20.694Z,1.83
2022-07-26T21:54:48.092Z,2.10
2022-07-26T21:57:15.470Z,1.97
2022-07-26T21:59:43.150Z,1.93
2022-07-26T22:02:11.891Z,1.83
2022-07-26T22:04:39.408Z,2.00
2022-07-26T22:07:06.830Z,2.00
2022-07-26T22:09:34.491Z,2.00
2022-07-26T22:12:01.849Z,1.70
2022-07-26T22:14:29.252Z,1.80
2022-07-26T22:16:56.731Z,1.67
2022-07-26T22:19:25.494Z,2.03
2022-07-26T22:21:53.276Z,1.70
2022-07-26T22:24:20.736Z,1.90
2022-07-26T22:26:48.123Z,1.70
2022-07-26T22:29:15.604Z,1.60
2022-07-26T22:31:43.063Z,1.70
2022-07-26T22:34:10.479Z,1.83
2022-07-26T22:36:45.086Z,1.80
2022-07-26T22:39:13.288Z,1.77
2022-07-26T22:42:05.049Z,1.60
2022-07-26T22:44:28.351Z,1.53
2022-07-26T22:46:55.815Z,1.60
2022-07-26T22:49:23.255Z,1.63
2022-07-26T22:51:52.019Z,1.57
2022-07-26T22:54:19.402Z,1.50
2022-07-26T22:56:46.983Z,1.20
2022-07-26T22:59:14.827Z,1.27
2022-07-26T23:01:43.047Z,1.50
2022-07-26T23:04:10.480Z,1.60
2022-07-26T23:06:38.193Z,1.20
2022-07-26T23:09:07.463Z,1.50
2022-07-26T23:11:34.927Z,1.47
2022-07-26T23:14:02.332Z,1.30
2022-07-26T23:16:29.750Z,1.70
2022-07-26T23:18:57.178Z,1.47
2022-07-26T23:21:24.568Z,1.17
2022-07-26T23:23:51.946Z,1.43
2022-07-26T23:26:20.927Z,1.10
2022-07-26T23:28:48.363Z,1.30
2022-07-26T23:31:15.752Z,1.17
2022-07-26T23:33:50.623Z,1.07
2022-07-26T23:36:18.613Z,1.10
2022-07-26T23:38:45.983Z,1.00
2022-07-26T23:41:13.361Z,1.00
2022-07-26T23:43:42.082Z,1.10
2022-07-26T23:46:09.457Z,1.00
2022-07-26T23:48:36.860Z,0.93
2022-07-26T23:51:04.572Z,1.00
2022-07-26T23:53:32.077Z,0.90
2022-07-26T23:55:59.575Z,1.10
2022-07-26T23:58:27.008Z,1.00
